sensor_id;sensor_type;location;lat;lon;timestamp;pressure;altitude;pressure_sealevel;temperature;humidity
62697;BME280;48761;42.680;23.312;2024-03-02T00:02:31;94205.16;;;7.57;93.87
62697;BME280;48761;42.680;23.312;2024-03-02T00:04:57;94225.25;;;7.59;93.80
62697;BME280;48761;42.680;23.312;2024-03-02T00:07:23;94246.22;;;7.62;94.22
62697;BME280;48761;42.680;23.312;2024-03-02T00:09:53;94212.25;;;7.43;94.35
62697;BME280;48761;42.680;23.312;2024-03-02T00:12:19;94235.53;;;7.64;94.20
62697;BME280;48761;42.680;23.312;2024-03-02T00:14:45;94244.84;;;7.83;93.80
62697;BME280;48761;42.680;23.312;2024-03-02T00:17:19;94242.31;;;7.68;93.26
62697;BME280;48761;42.680;23.312;2024-03-02T00:19:46;94230.56;;;7.72;93.81
62697;BME280;48761;42.680;23.312;2024-03-02T00:22:12;94214.06;;;7.56;93.96
62697;BME280;48761;42.680;23.312;2024-03-02T00:24:39;94236.50;;;7.63;94.19
62697;BME280;48761;42.680;23.312;2024-03-02T00:27:07;94246.75;;;7.81;93.58
62697;BME280;48761;42.680;23.312;2024-03-02T00:29:34;94234.34;;;7.94;93.24
62697;BME280;48761;42.680;23.312;2024-03-02T00:32:01;94219.75;;;7.49;94.52
62697;BME280;48761;42.680;23.312;2024-03-02T00:34:27;94218.47;;;7.42;94.87
62697;BME280;48761;42.680;23.312;2024-03-02T00:36:53;94228.63;;;7.48;94.14
62697;BME280;48761;42.680;23.312;2024-03-02T00:39:19;94233.91;;;7.48;94.91
62697;BME280;48761;42.680;23.312;2024-03-02T00:41:45;94225.47;;;7.56;94.56
62697;BME280;48761;42.680;23.312;2024-03-02T00:44:12;94234.16;;;7.58;94.44
62697;BME280;48761;42.680;23.312;2024-03-02T00:46:39;94230.22;;;7.51;94.83
62697;BME280;48761;42.680;23.312;2024-03-02T00:49:22;94226.13;;;7.73;93.54
62697;BME280;48761;42.680;23.312;2024-03-02T00:51:51;94226.22;;;7.71;93.71
62697;BME280;48761;42.680;23.312;2024-03-02T00:54:22;94218.50;;;7.68;93.62
62697;BME280;48761;42.680;23.312;2024-03-02T00:56:48;94214.69;;;7.59;93.43
62697;BME280;48761;42.680;23.312;2024-03-02T00:59:14;94219.25;;;7.70;92.83
62697;BME280;48761;42.680;23.312;2024-03-02T01:01:40;94229.28;;;7.65;93.07
62697;BME280;48761;42.680;23.312;2024-03-02T01:04:06;94219.13;;;7.59;93.73
62697;BME280;48761;42.680;23.312;2024-03-02T01:06:32;94222.28;;;7.64;93.26
62697;BME280;48761;42.680;23.312;2024-03-02T01:08:58;94223.78;;;7.68;93.31
62697;BME280;48761;42.680;23.312;2024-03-02T01:11:24;94215.63;;;7.71;93.24
62697;BME280;48761;42.680;23.312;2024-03-02T01:13:50;94229.72;;;7.85;92.59
62697;BME280;48761;42.680;23.312;2024-03-02T01:16:16;94207.47;;;7.74;92.65
62697;BME280;48761;42.680;23.312;2024-03-02T01:18:42;94223.16;;;7.78;93.13
62697;BME280;48761;42.680;23.312;2024-03-02T01:21:08;94202.72;;;7.67;93.21
62697;BME280;48761;42.680;23.312;2024-03-02T01:23:34;94211.59;;;7.79;92.54
62697;BME280;48761;42.680;23.312;2024-03-02T01:26:00;94204.31;;;7.82;92.55
62697;BME280;48761;42.680;23.312;2024-03-02T01:28:26;94196.69;;;7.78;92.71
62697;BME280;48761;42.680;23.312;2024-03-02T01:30:52;94186.53;;;7.71;93.22
62697;BME280;48761;42.680;23.312;2024-03-02T01:33:19;94191.06;;;7.69;93.84
62697;BME280;48761;42.680;23.312;2024-03-02T01:35:46;94183.13;;;7.69;94.24
62697;BME280;48761;42.680;23.312;2024-03-02T01:38:12;94176.19;;;7.68;94.40
62697;BME280;48761;42.680;23.312;2024-03-02T01:40:38;94187.50;;;7.70;94.43
62697;BME280;48761;42.680;23.312;2024-03-02T01:43:05;94162.63;;;7.60;94.38
62697;BME280;48761;42.680;23.312;2024-03-02T01:45:31;94178.06;;;7.66;94.27
62697;BME280;48761;42.680;23.312;2024-03-02T01:47:58;94186.09;;;7.78;94.85
62697;BME280;48761;42.680;23.312;2024-03-02T01:50:28;94176.44;;;8.03;93.48
62697;BME280;48761;42.680;23.312;2024-03-02T01:52:55;94184.25;;;8.04;94.05
62697;BME280;48761;42.680;23.312;2024-03-02T01:55:21;94187.09;;;8.14;93.59
62697;BME280;48761;42.680;23.312;2024-03-02T01:57:48;94185.63;;;8.10;93.85
62697;BME280;48761;42.680;23.312;2024-03-02T02:00:15;94171.69;;;7.82;95.11
62697;BME280;48761;42.680;23.312;2024-03-02T02:02:41;94180.81;;;7.91;95.21
62697;BME280;48761;42.680;23.312;2024-03-02T02:05:07;94180.56;;;8.07;94.76
62697;BME280;48761;42.680;23.312;2024-03-02T02:07:33;94172.97;;;7.89;95.08
62697;BME280;48761;42.680;23.312;2024-03-02T02:09:59;94189.28;;;7.83;95.83
62697;BME280;48761;42.680;23.312;2024-03-02T02:12:25;94149.72;;;7.42;97.75
62697;BME280;48761;42.680;23.312;2024-03-02T02:14:50;94167.72;;;7.63;98.17
62697;BME280;48761;42.680;23.312;2024-03-02T02:17:16;94183.13;;;7.56;98.35
62697;BME280;48761;42.680;23.312;2024-03-02T02:19:43;94180.81;;;7.78;97.09
62697;BME280;48761;42.680;23.312;2024-03-02T02:22:11;94178.69;;;7.96;96.82
62697;BME280;48761;42.680;23.312;2024-03-02T02:24:41;94179.09;;;8.03;96.07
62697;BME280;48761;42.680;23.312;2024-03-02T02:27:08;94179.59;;;8.08;95.52
62697;BME280;48761;42.680;23.312;2024-03-02T02:29:34;94185.81;;;8.20;95.09
62697;BME280;48761;42.680;23.312;2024-03-02T02:32:00;94183.06;;;8.22;94.01
62697;BME280;48761;42.680;23.312;2024-03-02T02:34:26;94191.31;;;8.30;94.39
62697;BME280;48761;42.680;23.312;2024-03-02T02:36:52;94185.59;;;8.36;94.00
62697;BME280;48761;42.680;23.312;2024-03-02T02:39:20;94158.66;;;7.92;95.16
62697;BME280;48761;42.680;23.312;2024-03-02T02:41:48;94176.84;;;8.10;95.03
62697;BME280;48761;42.680;23.312;2024-03-02T02:44:14;94183.09;;;8.09;94.65
62697;BME280;48761;42.680;23.312;2024-03-02T02:46:40;94170.22;;;7.91;94.96
62697;BME280;48761;42.680;23.312;2024-03-02T02:49:06;94190.41;;;8.05;94.67
62697;BME280;48761;42.680;23.312;2024-03-02T02:51:32;94187.09;;;8.14;94.11
62697;BME280;48761;42.680;23.312;2024-03-02T02:53:58;94189.63;;;8.29;93.59
62697;BME280;48761;42.680;23.312;2024-03-02T02:56:24;94159.56;;;8.17;93.12
62697;BME280;48761;42.680;23.312;2024-03-02T02:58:50;94191.94;;;8.34;92.77
62697;BME280;48761;42.680;23.312;2024-03-02T03:01:16;94183.88;;;8.35;92.99
62697;BME280;48761;42.680;23.312;2024-03-02T03:03:42;94164.72;;;8.32;93.11
62697;BME280;48761;42.680;23.312;2024-03-02T03:06:08;94181.28;;;8.09;94.14
62697;BME280;48761;42.680;23.312;2024-03-02T03:08:34;94162.38;;;7.89;94.80
62697;BME280;48761;42.680;23.312;2024-03-02T03:11:00;94193.06;;;8.05;94.62
62697;BME280;48761;42.680;23.312;2024-03-02T03:13:26;94190.75;;;7.87;95.46
62697;BME280;48761;42.680;23.312;2024-03-02T03:15:52;94186.63;;;7.96;95.47
62697;BME280;48761;42.680;23.312;2024-03-02T03:18:17;94192.97;;;7.93;96.06
62697;BME280;48761;42.680;23.312;2024-03-02T03:20:43;94186.69;;;8.21;94.93
62697;BME280;48761;42.680;23.312;2024-03-02T03:23:09;94189.69;;;8.40;94.61
62697;BME280;48761;42.680;23.312;2024-03-02T03:25:35;94184.06;;;8.45;93.90
62697;BME280;48761;42.680;23.312;2024-03-02T03:28:01;94192.50;;;8.50;93.67
62697;BME280;48761;42.680;23.312;2024-03-02T03:30:27;94168.47;;;8.16;94.29
62697;BME280;48761;42.680;23.312;2024-03-02T03:32:53;94187.75;;;8.05;94.83
62697;BME280;48761;42.680;23.312;2024-03-02T03:35:19;94189.69;;;7.90;96.51
62697;BME280;48761;42.680;23.312;2024-03-02T03:37:45;94159.00;;;7.87;95.80
62697;BME280;48761;42.680;23.312;2024-03-02T03:40:11;94188.84;;;7.89;95.85
62697;BME280;48761;42.680;23.312;2024-03-02T03:42:37;94191.81;;;7.84;97.29
62697;BME280;48761;42.680;23.312;2024-03-02T03:45:04;94193.59;;;7.84;97.24
62697;BME280;48761;42.680;23.312;2024-03-02T03:47:33;94187.38;;;7.85;97.54
62697;BME280;48761;42.680;23.312;2024-03-02T03:49:59;94196.00;;;8.13;96.40
62697;BME280;48761;42.680;23.312;2024-03-02T03:52:25;94189.00;;;8.25;96.18
62697;BME280;48761;42.680;23.312;2024-03-02T03:54:51;94175.94;;;8.35;94.92
62697;BME280;48761;42.680;23.312;2024-03-02T03:57:17;94178.88;;;8.44;94.13
62697;BME280;48761;42.680;23.312;2024-03-02T03:59:43;94172.03;;;8.28;94.50
62697;BME280;48761;42.680;23.312;2024-03-02T04:02:09;94182.63;;;8.28;94.85
62697;BME280;48761;42.680;23.312;2024-03-02T04:04:35;94185.22;;;8.16;95.84
62697;BME280;48761;42.680;23.312;2024-03-02T04:07:01;94194.47;;;8.35;95.30
62697;BME280;48761;42.680;23.312;2024-03-02T04:09:27;94191.31;;;8.17;96.27
62697;BME280;48761;42.680;23.312;2024-03-02T04:11:53;94192.56;;;8.24;96.24
62697;BME280;48761;42.680;23.312;2024-03-02T04:14:19;94182.47;;;8.43;95.83
62697;BME280;48761;42.680;23.312;2024-03-02T04:16:45;94178.16;;;8.41;95.39
62697;BME280;48761;42.680;23.312;2024-03-02T04:19:10;94184.22;;;8.55;95.52
62697;BME280;48761;42.680;23.312;2024-03-02T04:21:36;94151.28;;;8.22;96.28
62697;BME280;48761;42.680;23.312;2024-03-02T04:24:02;94190.63;;;8.39;96.99
62697;BME280;48761;42.680;23.312;2024-03-02T04:26:28;94190.25;;;8.19;97.90
62697;BME280;48761;42.680;23.312;2024-03-02T04:28:54;94177.47;;;8.13;98.18
62697;BME280;48761;42.680;23.312;2024-03-02T04:31:20;94188.34;;;8.22;97.71
62697;BME280;48761;42.680;23.312;2024-03-02T04:33:46;94192.19;;;8.17;98.41
62697;BME280;48761;42.680;23.312;2024-03-02T04:36:12;94199.97;;;8.32;97.18
62697;BME280;48761;42.680;23.312;2024-03-02T04:38:38;94194.75;;;8.06;98.88
62697;BME280;48761;42.680;23.312;2024-03-02T04:41:04;94187.41;;;8.23;97.01
62697;BME280;48761;42.680;23.312;2024-03-02T04:43:31;94193.53;;;8.36;96.85
62697;BME280;48761;42.680;23.312;2024-03-02T04:45:58;94178.78;;;8.32;96.87
62697;BME280;48761;42.680;23.312;2024-03-02T04:48:24;94177.72;;;8.35;97.01
62697;BME280;48761;42.680;23.312;2024-03-02T04:50:50;94207.13;;;8.56;97.13
62697;BME280;48761;42.680;23.312;2024-03-02T04:53:16;94202.72;;;8.44;97.56
62697;BME280;48761;42.680;23.312;2024-03-02T04:55:42;94209.03;;;8.54;97.82
62697;BME280;48761;42.680;23.312;2024-03-02T04:58:08;94206.94;;;8.59;97.49
62697;BME280;48761;42.680;23.312;2024-03-02T05:00:35;94210.31;;;8.61;97.52
62697;BME280;48761;42.680;23.312;2024-03-02T05:03:01;94211.56;;;8.69;97.24
62697;BME280;48761;42.680;23.312;2024-03-02T05:05:28;94198.19;;;8.57;97.78
62697;BME280;48761;42.680;23.312;2024-03-02T05:07:54;94210.31;;;8.61;98.30
62697;BME280;48761;42.680;23.312;2024-03-02T05:10:20;94195.38;;;7.96;100.00
62697;BME280;48761;42.680;23.312;2024-03-02T05:12:46;94225.81;;;8.41;100.00
62697;BME280;48761;42.680;23.312;2024-03-02T05:15:13;94197.94;;;8.11;100.00
62697;BME280;48761;42.680;23.312;2024-03-02T05:17:40;94196.81;;;8.27;100.00
62697;BME280;48761;42.680;23.312;2024-03-02T05:20:07;94231.72;;;8.45;100.00
62697;BME280;48761;42.680;23.312;2024-03-02T05:22:33;94224.53;;;8.34;100.00
62697;BME280;48761;42.680;23.312;2024-03-02T05:25:06;94230.81;;;8.33;100.00
62697;BME280;48761;42.680;23.312;2024-03-02T05:27:32;94223.34;;;8.01;100.00
62697;BME280;48761;42.680;23.312;2024-03-02T05:29:59;94224.22;;;7.88;100.00
62697;BME280;48761;42.680;23.312;2024-03-02T05:32:25;94236.31;;;8.30;100.00
62697;BME280;48761;42.680;23.312;2024-03-02T05:34:51;94235.78;;;8.38;100.00
62697;BME280;48761;42.680;23.312;2024-03-02T05:37:17;94238.25;;;8.02;100.00
62697;BME280;48761;42.680;23.312;2024-03-02T05:39:43;94230.09;;;8.18;100.00
62697;BME280;48761;42.680;23.312;2024-03-02T05:42:10;94235.13;;;8.34;100.00
62697;BME280;48761;42.680;23.312;2024-03-02T05:44:36;94242.13;;;8.35;100.00
62697;BME280;48761;42.680;23.312;2024-03-02T05:47:02;94257.38;;;8.45;100.00
62697;BME280;48761;42.680;23.312;2024-03-02T05:49:28;94248.25;;;8.62;100.00
62697;BME280;48761;42.680;23.312;2024-03-02T05:51:54;94221.78;;;8.49;100.00
62697;BME280;48761;42.680;23.312;2024-03-02T05:54:20;94251.44;;;8.54;100.00
62697;BME280;48761;42.680;23.312;2024-03-02T05:56:46;94248.81;;;8.41;100.00
62697;BME280;48761;42.680;23.312;2024-03-02T05:59:12;94261.47;;;8.11;100.00
62697;BME280;48761;42.680;23.312;2024-03-02T06:01:45;94251.41;;;7.90;100.00
62697;BME280;48761;42.680;23.312;2024-03-02T06:04:11;94257.75;;;7.88;100.00
62697;BME280;48761;42.680;23.312;2024-03-02T06:06:37;94254.78;;;7.92;100.00
62697;BME280;48761;42.680;23.312;2024-03-02T06:09:04;94256.69;;;7.90;100.00
62697;BME280;48761;42.680;23.312;2024-03-02T06:11:30;94246.00;;;7.92;100.00
62697;BME280;48761;42.680;23.312;2024-03-02T06:13:56;94259.69;;;7.99;100.00
62697;BME280;48761;42.680;23.312;2024-03-02T06:16:22;94256.06;;;7.87;100.00
62697;BME280;48761;42.680;23.312;2024-03-02T06:18:48;94251.72;;;7.85;100.00
62697;BME280;48761;42.680;23.312;2024-03-02T06:21:14;94256.81;;;7.89;100.00
62697;BME280;48761;42.680;23.312;2024-03-02T06:23:40;94243.88;;;7.97;100.00
62697;BME280;48761;42.680;23.312;2024-03-02T06:26:06;94259.75;;;7.97;100.00
62697;BME280;48761;42.680;23.312;2024-03-02T06:28:32;94251.09;;;7.95;100.00
62697;BME280;48761;42.680;23.312;2024-03-02T06:30:58;94250.88;;;7.85;100.00
62697;BME280;48761;42.680;23.312;2024-03-02T06:33:24;94258.28;;;7.80;100.00
62697;BME280;48761;42.680;23.312;2024-03-02T06:35:50;94258.28;;;7.80;100.00
62697;BME280;48761;42.680;23.312;2024-03-02T06:38:16;94272.44;;;7.79;100.00
62697;BME280;48761;42.680;23.312;2024-03-02T06:40:42;94268.00;;;7.66;100.00
62697;BME280;48761;42.680;23.312;2024-03-02T06:43:08;94237.31;;;7.50;100.00
62697;BME280;48761;42.680;23.312;2024-03-02T06:45:34;94270.03;;;7.62;100.00
62697;BME280;48761;42.680;23.312;2024-03-02T06:48:00;94276.69;;;7.55;100.00
62697;BME280;48761;42.680;23.312;2024-03-02T06:50:26;94276.16;;;7.63;100.00
62697;BME280;48761;42.680;23.312;2024-03-02T06:52:52;94279.00;;;7.60;100.00
62697;BME280;48761;42.680;23.312;2024-03-02T06:55:18;94241.53;;;7.40;100.00
62697;BME280;48761;42.680;23.312;2024-03-02T06:57:44;94281.47;;;7.63;100.00
62697;BME280;48761;42.680;23.312;2024-03-02T07:00:10;94276.91;;;7.65;100.00
62697;BME280;48761;42.680;23.312;2024-03-02T07:02:36;94277.53;;;7.56;100.00
62697;BME280;48761;42.680;23.312;2024-03-02T07:05:02;94269.06;;;7.50;100.00
62697;BME280;48761;42.680;23.312;2024-03-02T07:07:28;94256.56;;;7.53;100.00
62697;BME280;48761;42.680;23.312;2024-03-02T07:09:54;94264.91;;;7.46;100.00
62697;BME280;48761;42.680;23.312;2024-03-02T07:12:20;94257.13;;;7.58;100.00
62697;BME280;48761;42.680;23.312;2024-03-02T07:14:46;94286.84;;;7.74;100.00
62697;BME280;48761;42.680;23.312;2024-03-02T07:17:12;94281.13;;;7.55;100.00
62697;BME280;48761;42.680;23.312;2024-03-02T07:19:38;94284.94;;;7.50;100.00
62697;BME280;48761;42.680;23.312;2024-03-02T07:22:08;94291.28;;;7.48;100.00
62697;BME280;48761;42.680;23.312;2024-03-02T07:24:41;94294.84;;;7.47;100.00
62697;BME280;48761;42.680;23.312;2024-03-02T07:27:10;94289.16;;;7.66;100.00
62697;BME280;48761;42.680;23.312;2024-03-02T07:29:36;94282.38;;;7.49;100.00
62697;BME280;48761;42.680;23.312;2024-03-02T07:32:02;94286.81;;;7.48;100.00
62697;BME280;48761;42.680;23.312;2024-03-02T07:34:28;94293.69;;;7.38;100.00
62697;BME280;48761;42.680;23.312;2024-03-02T07:36:54;94291.78;;;7.40;100.00
62697;BME280;48761;42.680;23.312;2024-03-02T07:39:21;94297.63;;;7.45;100.00
62697;BME280;48761;42.680;23.312;2024-03-02T07:41:47;94292.72;;;7.39;100.00
62697;BME280;48761;42.680;23.312;2024-03-02T07:44:13;94285.75;;;7.38;100.00
62697;BME280;48761;42.680;23.312;2024-03-02T07:46:39;94299.06;;;7.36;100.00
62697;BME280;48761;42.680;23.312;2024-03-02T07:49:04;94302.59;;;7.50;100.00
62697;BME280;48761;42.680;23.312;2024-03-02T07:51:30;94295.00;;;7.31;100.00
62697;BME280;48761;42.680;23.312;2024-03-02T07:53:56;94299.56;;;7.28;100.00
62697;BME280;48761;42.680;23.312;2024-03-02T07:56:22;94309.00;;;7.33;100.00
62697;BME280;48761;42.680;23.312;2024-03-02T07:58:48;94287.63;;;7.36;100.00
62697;BME280;48761;42.680;23.312;2024-03-02T08:01:15;94315.16;;;7.46;100.00
62697;BME280;48761;42.680;23.312;2024-03-02T08:03:41;94307.16;;;7.61;100.00
62697;BME280;48761;42.680;23.312;2024-03-02T08:06:07;94318.59;;;7.74;100.00
62697;BME280;48761;42.680;23.312;2024-03-02T08:08:32;94304.19;;;7.53;100.00
62697;BME280;48761;42.680;23.312;2024-03-02T08:10:58;94299.53;;;7.43;100.00
62697;BME280;48761;42.680;23.312;2024-03-02T08:13:24;94322.50;;;7.56;100.00
62697;BME280;48761;42.680;23.312;2024-03-02T08:15:50;94305.28;;;7.63;100.00
62697;BME280;48761;42.680;23.312;2024-03-02T08:18:16;94317.50;;;7.51;100.00
62697;BME280;48761;42.680;23.312;2024-03-02T08:20:42;94318.59;;;7.74;100.00
62697;BME280;48761;42.680;23.312;2024-03-02T08:23:08;94316.50;;;7.80;100.00
62697;BME280;48761;42.680;23.312;2024-03-02T08:25:34;94317.34;;;7.80;100.00
62697;BME280;48761;42.680;23.312;2024-03-02T08:28:00;94312.59;;;7.85;100.00
62697;BME280;48761;42.680;23.312;2024-03-02T08:30:26;94308.66;;;7.65;100.00
62697;BME280;48761;42.680;23.312;2024-03-02T08:32:52;94285.38;;;7.70;100.00
62697;BME280;48761;42.680;23.312;2024-03-02T08:35:18;94303.81;;;7.85;100.00
62697;BME280;48761;42.680;23.312;2024-03-02T08:37:43;94309.28;;;7.82;100.00
62697;BME280;48761;42.680;23.312;2024-03-02T08:40:10;94314.91;;;7.77;100.00
62697;BME280;48761;42.680;23.312;2024-03-02T08:42:36;94314.28;;;7.87;100.00
62697;BME280;48761;42.680;23.312;2024-03-02T08:45:06;94316.06;;;7.73;100.00
62697;BME280;48761;42.680;23.312;2024-03-02T08:47:32;94305.25;;;7.76;100.00
62697;BME280;48761;42.680;23.312;2024-03-02T08:49:59;94305.28;;;7.89;100.00
62697;BME280;48761;42.680;23.312;2024-03-02T08:52:25;94316.22;;;8.11;100.00
62697;BME280;48761;42.680;23.312;2024-03-02T08:54:51;94318.50;;;7.89;100.00
62697;BME280;48761;42.680;23.312;2024-03-02T08:57:17;94312.28;;;7.90;100.00
62697;BME280;48761;42.680;23.312;2024-03-02T08:59:43;94316.06;;;7.99;100.00
62697;BME280;48761;42.680;23.312;2024-03-02T09:02:10;94302.09;;;7.97;100.00
62697;BME280;48761;42.680;23.312;2024-03-02T09:04:36;94316.19;;;8.37;100.00
62697;BME280;48761;42.680;23.312;2024-03-02T09:07:02;94307.06;;;8.54;100.00
62697;BME280;48761;42.680;23.312;2024-03-02T09:09:28;94287.16;;;8.61;100.00
62697;BME280;48761;42.680;23.312;2024-03-02T09:11:54;94324.75;;;8.40;100.00
62697;BME280;48761;42.680;23.312;2024-03-02T09:14:21;94305.28;;;8.41;100.00
62697;BME280;48761;42.680;23.312;2024-03-02T09:16:47;94314.69;;;8.33;100.00
62697;BME280;48761;42.680;23.312;2024-03-02T09:19:13;94319.69;;;8.63;100.00
62697;BME280;48761;42.680;23.312;2024-03-02T09:21:39;94326.88;;;8.74;100.00
62697;BME280;48761;42.680;23.312;2024-03-02T09:24:05;94321.97;;;8.81;100.00
62697;BME280;48761;42.680;23.312;2024-03-02T09:26:31;94331.53;;;8.71;100.00
62697;BME280;48761;42.680;23.312;2024-03-02T09:28:57;94328.81;;;8.59;100.00
62697;BME280;48761;42.680;23.312;2024-03-02T09:31:22;94338.28;;;8.75;100.00
62697;BME280;48761;42.680;23.312;2024-03-02T09:33:48;94314.50;;;8.62;100.00
62697;BME280;48761;42.680;23.312;2024-03-02T09:36:18;94336.84;;;8.71;100.00
62697;BME280;48761;42.680;23.312;2024-03-02T09:38:44;94333.97;;;8.74;100.00
62697;BME280;48761;42.680;23.312;2024-03-02T09:41:10;94328.16;;;8.69;100.00
62697;BME280;48761;42.680;23.312;2024-03-02T09:43:37;94339.81;;;8.66;100.00
62697;BME280;48761;42.680;23.312;2024-03-02T09:46:03;94332.38;;;8.71;100.00
62697;BME280;48761;42.680;23.312;2024-03-02T09:48:30;94335.97;;;8.83;100.00
62697;BME280;48761;42.680;23.312;2024-03-02T09:50:56;94336.81;;;8.84;100.00
62697;BME280;48761;42.680;23.312;2024-03-02T09:53:23;94333.84;;;8.76;100.00
62697;BME280;48761;42.680;23.312;2024-03-02T09:55:50;94333.56;;;8.54;100.00
62697;BME280;48761;42.680;23.312;2024-03-02T09:58:15;94341.81;;;8.62;100.00
62697;BME280;48761;42.680;23.312;2024-03-02T10:00:41;94332.28;;;8.47;100.00
62697;BME280;48761;42.680;23.312;2024-03-02T10:03:12;94343.19;;;8.55;100.00
62697;BME280;48761;42.680;23.312;2024-03-02T10:05:38;94339.91;;;8.51;100.00
62697;BME280;48761;42.680;23.312;2024-03-02T10:08:04;94330.06;;;8.40;100.00
62697;BME280;48761;42.680;23.312;2024-03-02T10:10:40;94328.16;;;8.43;100.00
62697;BME280;48761;42.680;23.312;2024-03-02T10:13:08;94342.31;;;8.55;100.00
62697;BME280;48761;42.680;23.312;2024-03-02T10:15:34;94318.81;;;8.37;100.00
62697;BME280;48761;42.680;23.312;2024-03-02T10:18:00;94328.88;;;8.45;100.00
62697;BME280;48761;42.680;23.312;2024-03-02T10:20:27;94332.72;;;8.40;100.00
62697;BME280;48761;42.680;23.312;2024-03-02T10:22:53;94333.84;;;8.49;100.00
62697;BME280;48761;42.680;23.312;2024-03-02T10:25:32;94316.28;;;8.22;100.00
62697;BME280;48761;42.680;23.312;2024-03-02T10:27:59;94330.06;;;8.40;100.00
62697;BME280;48761;42.680;23.312;2024-03-02T10:30:28;94309.28;;;8.34;100.00
62697;BME280;48761;42.680;23.312;2024-03-02T10:32:54;94326.91;;;8.61;100.00
62697;BME280;48761;42.680;23.312;2024-03-02T10:35:24;94339.06;;;8.51;100.00
62697;BME280;48761;42.680;23.312;2024-03-02T10:37:50;94337.88;;;8.55;100.00
62697;BME280;48761;42.680;23.312;2024-03-02T10:40:16;94333.44;;;8.56;100.00
62697;BME280;48761;42.680;23.312;2024-03-02T10:42:42;94335.97;;;8.57;100.00
62697;BME280;48761;42.680;23.312;2024-03-02T10:45:12;94323.69;;;8.56;100.00
62697;BME280;48761;42.680;23.312;2024-03-02T10:47:42;94308.47;;;8.34;100.00
62697;BME280;48761;42.680;23.312;2024-03-02T10:50:08;94326.75;;;8.50;100.00
62697;BME280;48761;42.680;23.312;2024-03-02T10:52:38;94324.84;;;8.52;100.00
62697;BME280;48761;42.680;23.312;2024-03-02T10:55:05;94319.81;;;8.62;100.00
62697;BME280;48761;42.680;23.312;2024-03-02T10:57:53;94318.59;;;8.79;100.00
62697;BME280;48761;42.680;23.312;2024-03-02T11:00:19;94314.78;;;8.57;100.00
62697;BME280;48761;42.680;23.312;2024-03-02T11:02:57;94322.66;;;8.59;100.00
62697;BME280;48761;42.680;23.312;2024-03-02T11:05:28;94313.84;;;8.58;100.00
62697;BME280;48761;42.680;23.312;2024-03-02T11:08:00;94326.16;;;8.59;100.00
62697;BME280;48761;42.680;23.312;2024-03-02T11:10:30;94308.56;;;8.58;100.00
62697;BME280;48761;42.680;23.312;2024-03-02T11:13:02;94318.38;;;8.56;100.00
62697;BME280;48761;42.680;23.312;2024-03-02T11:15:30;94320.41;;;8.66;100.00
62697;BME280;48761;42.680;23.312;2024-03-02T11:17:57;94314.69;;;8.72;100.00
62697;BME280;48761;42.680;23.312;2024-03-02T11:20:24;94310.97;;;8.48;100.00
62697;BME280;48761;42.680;23.312;2024-03-02T11:22:50;94310.00;;;8.49;100.00
62697;BME280;48761;42.680;23.312;2024-03-02T11:25:24;94306.53;;;8.49;100.00
62697;BME280;48761;42.680;23.312;2024-03-02T11:33:00;94303.06;;;8.61;100.00
62697;BME280;48761;42.680;23.312;2024-03-02T11:35:27;94308.88;;;8.67;100.00
62697;BME280;48761;42.680;23.312;2024-03-02T11:37:53;94287.47;;;8.44;100.00
62697;BME280;48761;42.680;23.312;2024-03-02T11:40:24;94305.03;;;8.58;100.00
62697;BME280;48761;42.680;23.312;2024-03-02T11:42:50;94306.09;;;8.55;100.00
62697;BME280;48761;42.680;23.312;2024-03-02T11:45:23;94300.28;;;8.63;100.00
62697;BME280;48761;42.680;23.312;2024-03-02T11:47:57;94299.34;;;8.64;100.00
62697;BME280;48761;42.680;23.312;2024-03-02T11:50:46;94295.25;;;8.84;100.00
62697;BME280;48761;42.680;23.312;2024-03-02T11:53:12;94312.84;;;8.85;100.00
62697;BME280;48761;42.680;23.312;2024-03-02T11:55:38;94311.84;;;8.62;100.00
62697;BME280;48761;42.680;23.312;2024-03-02T11:58:05;94317.03;;;8.63;100.00
62697;BME280;48761;42.680;23.312;2024-03-02T12:00:32;94292.13;;;8.53;100.00
62697;BME280;48761;42.680;23.312;2024-03-02T12:03:02;94299.13;;;8.54;100.00
62697;BME280;48761;42.680;23.312;2024-03-02T12:05:30;94299.84;;;8.69;100.00
62697;BME280;48761;42.680;23.312;2024-03-02T12:07:57;94289.56;;;8.65;100.00
62697;BME280;48761;42.680;23.312;2024-03-02T12:10:23;94307.53;;;8.85;100.00
62697;BME280;48761;42.680;23.312;2024-03-02T12:13:03;94298.28;;;8.67;100.00
62697;BME280;48761;42.680;23.312;2024-03-02T12:15:31;94291.72;;;8.59;100.00
62697;BME280;48761;42.680;23.312;2024-03-02T12:17:59;94302.16;;;8.74;100.00
62697;BME280;48761;42.680;23.312;2024-03-02T12:20:26;94301.66;;;8.69;100.00
62697;BME280;48761;42.680;23.312;2024-03-02T12:22:53;94288.50;;;8.67;100.00
62697;BME280;48761;42.680;23.312;2024-03-02T12:25:23;94308.00;;;8.79;100.00
62697;BME280;48761;42.680;23.312;2024-03-02T12:27:52;94298.22;;;8.80;100.00
62697;BME280;48761;42.680;23.312;2024-03-02T12:30:19;94309.28;;;8.73;100.00
62697;BME280;48761;42.680;23.312;2024-03-02T12:32:46;94300.78;;;8.55;100.00
62697;BME280;48761;42.680;23.312;2024-03-02T12:35:12;94295.38;;;8.70;100.00
62697;BME280;48761;42.680;23.312;2024-03-02T12:37:46;94297.28;;;8.81;100.00
62697;BME280;48761;42.680;23.312;2024-03-02T12:40:13;94296.84;;;8.87;100.00
62697;BME280;48761;42.680;23.312;2024-03-02T12:42:39;94289.28;;;8.94;100.00
62697;BME280;48761;42.680;23.312;2024-03-02T12:45:06;94297.38;;;8.79;100.00
62697;BME280;48761;42.680;23.312;2024-03-02T12:47:33;94308.06;;;8.91;100.00
62697;BME280;48761;42.680;23.312;2024-03-02T12:49:59;94277.22;;;8.90;100.00
62697;BME280;48761;42.680;23.312;2024-03-02T12:52:25;94275.69;;;8.99;100.00
62697;BME280;48761;42.680;23.312;2024-03-02T12:54:51;94297.78;;;8.86;100.00
62697;BME280;48761;42.680;23.312;2024-03-02T12:57:18;94287.84;;;8.77;100.00
62697;BME280;48761;42.680;23.312;2024-03-02T12:59:47;94298.47;;;9.01;100.00